Terminal Aerodrome Forecast
Issued by NWS

Home | Current Version | Previous Version | Text Only | Print | Product List | Glossary On
Versions: 1 2 3 4 5 6 7 8 9 10 11 12 13 14 15 16 17
000
FTUS46 KSEW 252300
TAFOLM
TAF
KOLM 252320Z 2600/2624 35006KT P6SM SCT045
     FM260500 VRB03KT P6SM FEW050
     FM261200 00000KT 1SM BR BKN002
     FM261600 VRB03KT P6SM OVC009
     FM261800 35005KT P6SM FEW025=

USA.gov is the U.S. government's official web portal to all federal, state and local government web resources and services.